Anthem Of The Seas — C6BI7 — position and weather

sailwx.info

Track history (hours):
 
Tides and Currents Weather Stations Pressure Air Temp Water Temp Dewpoint Dewpoint Depression Visibility Wind Speed Wind Dir Waves Ship Positions

Anthem Of The Seas

Last reported at 2020-Jul-02 14:27 UTC. Time now 2020-Jul-02 15:52 UTC.
Position N 37°56' E 023°37'.

Length 348 m; draft 8.8 m.

Type: Passenger vessel. MMSI: 311000274.

Date/timePositionNaut miles runAvg speedWind from/ knotsBaromVisibWave heightAir tempDewpointWater temp
2020-Jul-02 14:27N 37°56' E 023°37'0 0.0
2020-Jul-02 11:27N 37°56' E 023°37'0 0.0
2020-Jul-02 10:57N 37°56' E 023°37'0 0.0
2020-Jul-02 10:27N 37°56' E 023°37'0 0.0
2020-Jul-02 09:27N 37°56' E 023°37'0 0.0
2020-Jul-02 08:57N 37°56' E 023°37'0 0.0
2020-Jul-02 06:27N 37°56' E 023°37'1 0.4
2020-Jul-02 04:00N 37°56' E 023°36'1 1.5
2020-Jul-02 03:30N 37°55' E 023°36'1110.7
2020-Jul-02 02:31N 37°46' E 023°43'1716.6
2020-Jul-02 01:30N 37°29' E 023°47'3316.3
2020-Jul-01 23:30N 36°59' E 024°01'8116.2
2020-Jul-01 18:30N 36°03' E 025°15'21016.1
2020-Jul-01 05:28N 33°59' E 028°42'4916.3
2020-Jul-01 02:27N 33°28' E 029°28'3916.1
2020-Jul-01 00:00N 33°04' E 030°05'3915.7
2020-Jun-30 21:30N 32°39' E 030°41'4715.7
2020-Jun-30 18:30N 32°09' E 031°24'815.2
2020-Jun-30 18:00N 32°04' E 031°31'2514.9
2020-Jun-30 16:19N 31°49' E 031°54'1214.9
2020-Jun-30 15:29N 31°40' E 032°05'1514.9
2020-Jun-30 14:30N 31°31' E 032°18'1211.7
2020-Jun-30 13:30N 31°20' E 032°22'1510.2
2020-Jun-30 12:00N 31°05' E 032°19'76 5.4
2020-Jun-29 22:01N 29°50' E 032°33'  
Track history (hours):
 
Tides and Currents Weather Stations Pressure Air Temp Water Temp Dewpoint Dewpoint Depression Visibility Wind Speed Wind Dir Waves Ship Positions

Anthem Of The Seas

Last reported at 2020-Jul-02 14:27 UTC. Time now 2020-Jul-02 15:52 UTC.
Position N 37°56' E 023°37'.

Length 348 m; draft 8.8 m.

Type: Passenger vessel. MMSI: 311000274.

Date/timePositionNaut miles runAvg speedWind from/ knotsBaromVisibWave heightAir tempDewpointWater temp
2020-Jul-02 14:27N 37°56' E 023°37'0 0.0
2020-Jul-02 11:27N 37°56' E 023°37'0 0.0
2020-Jul-02 10:57N 37°56' E 023°37'0 0.0
2020-Jul-02 10:27N 37°56' E 023°37'0 0.0
2020-Jul-02 09:27N 37°56' E 023°37'0 0.0
2020-Jul-02 08:57N 37°56' E 023°37'0 0.0
2020-Jul-02 06:27N 37°56' E 023°37'1 0.4
2020-Jul-02 04:00N 37°56' E 023°36'1 1.5
2020-Jul-02 03:30N 37°55' E 023°36'1110.7
2020-Jul-02 02:31N 37°46' E 023°43'1716.6
2020-Jul-02 01:30N 37°29' E 023°47'3316.3
2020-Jul-01 23:30N 36°59' E 024°01'8116.2
2020-Jul-01 18:30N 36°03' E 025°15'21016.1
2020-Jul-01 05:28N 33°59' E 028°42'4916.3
2020-Jul-01 02:27N 33°28' E 029°28'3916.1
2020-Jul-01 00:00N 33°04' E 030°05'3915.7
2020-Jun-30 21:30N 32°39' E 030°41'4715.7
2020-Jun-30 18:30N 32°09' E 031°24'815.2
2020-Jun-30 18:00N 32°04' E 031°31'2514.9
2020-Jun-30 16:19N 31°49' E 031°54'1214.9
2020-Jun-30 15:29N 31°40' E 032°05'1514.9
2020-Jun-30 14:30N 31°31' E 032°18'1211.7
2020-Jun-30 13:30N 31°20' E 032°22'1510.2
2020-Jun-30 12:00N 31°05' E 032°19'76 5.4
2020-Jun-29 22:01N 29°50' E 032°33'  

Dump ship's entire track history